Pompeys Pillar, MT

1:21 PM MDT on October 01, 2014 (GMT -0600)
Custer | Change Station
CLOSE
Current Station
Personal Weather Station
Location: Waco, MT
Elevation: 2785 ft
Nearby Weather Stations

Elev 2785 ft 46.07 °N, 107.72 °W | Updated 2 minutes ago

Mostly Cloudy
Mostly Cloudy
59.3 °F
Feels Like 59.3 °F
N
12.0
Wind Variable Wind from NW
Gusts 16.0 mph

Today
High -- | Low -- °F
--% Chance of Precip.
Yesterday
High -- | Low -- °F
Precip. -- in
7:10 AM 6:51 PM
Waxing Crescent, 50% visible
Pressure 29.92 in
Visibility 10.0 miles
Clouds Scattered Clouds 5000 ft
Scattered Clouds 9000 ft
Dew Point 37 °F
Humidity 43%
Rainfall 0.00 in
Snow Depth 0 in , 0 in , 1 in
UV 4 out of 12
Pollen 3.00 out of 12
Air Quality Not available.
Flu Activity Not available.
METAR KBIL 011853Z 32011G20KT 10SM SCT050 SCT090 16/01 A2995 RMK AO2 SLP130 VIRGA E-NW T01560006

More Conditions Fewer Conditions

Pressure 29.92 in
Visibility 10.0 miles
Clouds Scattered Clouds 5000 ft
Scattered Clouds 9000 ft
Dew Point 37 °F
Humidity 43%
Rainfall 0.00 in
Snow Depth 0 in , 0 in , 1 in
UV 4 out of 12
Pollen 3.00 out of 12
Air Quality Not available.
Flu Activity Not available.
METAR KBIL 011853Z 32011G20KT 10SM SCT050 SCT090 16/01 A2995 RMK AO2 SLP130 VIRGA E-NW T01560006

More Conditions Fewer Conditions

10-Day Weather Forecast

Almanac

Astronomy

Oct. 01, 2014 Rise Set
Actual Time 7:10 AM MDT 6:51 PM MDT
Civil Twilight 6:40 AM MDT 7:21 PM MDT
Nautical Twilight 6:05 AM MDT 7:56 PM MDT
Astronomical Twilight 5:30 AM MDT 8:31 PM MDT
Moon 2:27 PM MDT No Moon Set
Length of Visible Light 12h 40m
Length of Day
11h 41m
Tomorrow will be 3m 12s shorter.
Waxing Crescent, 50% of the Moon is Illuminated
Today
Waxing Crescent
Oct 1
First Quarter
Oct 8
Full
Oct 15
Last Quarter
Oct 23
New

Today's Extremes

State Highs State Lows

Community

WunderPhotos

Upload Photos

1,758,010 photos uploaded!

WunderBlogs® & News

Nearby

Snow Depth

Station Depth Elevation
Rocker Peak 0 in 8000 ft
Poorman Creek 0 in 5100 ft
Brackett Creek 1 in 7320 ft
Black Bear 0 in 8150 ft
Beaver Creek 0 in 7850 ft

Earthquake Activity

City Distance Mag. Time & Date
No recent earthquake activity has been reported nearby.
Minimum magnitude displayed is 2.5.

Coastal Water Temperatures

Place Temperature
No Stations Reporting

Nearby Weather Stations